Private Wetterstation Sandau
Wetterdaten: Montag, 05.11.2012
Datum Zeit Temp. A. Feuchte A. Luftdruck Regen Wind Richtung Richtung Taupunkt Windchill
05.11.2012 00:01 7,2 C 92 % 996,9 hPa 0,0 l/m 8,3 km/h (2 Bft) SW 225 6,0 C 5,6 C
05.11.2012 00:06 7,2 C 92 % 997,5 hPa 0,0 l/m 8,3 km/h (2 Bft) SW 225 6,0 C 5,6 C
05.11.2012 00:11 7,1 C 92 % 997,6 hPa 0,0 l/m 7,2 km/h (2 Bft) S 180 5,9 C 5,8 C
05.11.2012 00:16 7,1 C 92 % 997,0 hPa 0,0 l/m 5,4 km/h (1 Bft) SW 225 5,9 C 6,3 C
05.11.2012 00:21 7,1 C 92 % 997,1 hPa 0,0 l/m 5,8 km/h (2 Bft) S-SW 202 5,9 C 6,2 C
05.11.2012 00:26 7,0 C 92 % 997,3 hPa 0,0 l/m 8,6 km/h (2 Bft) SW 225 5,8 C 5,3 C
05.11.2012 00:31 6,9 C 92 % 997,2 hPa 0,0 l/m 5,0 km/h (1 Bft) W-SW 247 5,7 C 6,2 C
05.11.2012 00:36 6,9 C 92 % 997,2 hPa 0,0 l/m 8,3 km/h (2 Bft) W-SW 247 5,7 C 5,3 C
05.11.2012 00:41 6,9 C 92 % 997,3 hPa 0,0 l/m 4,3 km/h (1 Bft) SW 225 5,7 C 6,9 C
05.11.2012 00:46 6,9 C 92 % 997,2 hPa 0,0 l/m 7,6 km/h (2 Bft) W-SW 247 5,7 C 5,5 C
05.11.2012 00:51 6,9 C 92 % 997,5 hPa 0,0 l/m 8,6 km/h (2 Bft) W-SW 247 5,7 C 5,2 C
05.11.2012 00:56 6,8 C 92 % 997,3 hPa 0,0 l/m 4,7 km/h (1 Bft) W-SW 247 5,6 C 6,2 C
05.11.2012 01:01 6,8 C 92 % 997,2 hPa 0,0 l/m 6,1 km/h (2 Bft) SW 225 5,6 C 5,8 C
05.11.2012 01:06 6,8 C 92 % 997,1 hPa 0,0 l/m 6,1 km/h (2 Bft) W-SW 247 5,6 C 5,8 C
05.11.2012 01:11 6,7 C 92 % 997,2 hPa 0,0 l/m 9,7 km/h (2 Bft) SW 225 5,5 C 4,8 C
05.11.2012 01:16 6,6 C 92 % 997,3 hPa 0,0 l/m 6,1 km/h (2 Bft) W-SW 247 5,4 C 5,5 C
05.11.2012 01:21 6,6 C 92 % 997,1 hPa 0,0 l/m 5,8 km/h (2 Bft) SW 225 5,4 C 5,6 C
05.11.2012 01:26 6,6 C 92 % 997,0 hPa 0,0 l/m 6,8 km/h (2 Bft) SW 225 5,4 C 5,3 C
05.11.2012 01:31 6,6 C 92 % 997,0 hPa 0,0 l/m 3,6 km/h (1 Bft) W-SW 247 5,4 C 6,6 C
05.11.2012 01:36 6,5 C 92 % 997,1 hPa 0,0 l/m 4,7 km/h (1 Bft) SW 225 5,3 C 5,9 C
05.11.2012 01:41 6,5 C 92 % 997,1 hPa 0,0 l/m 7,6 km/h (2 Bft) SW 225 5,3 C 5,0 C
05.11.2012 01:46 6,5 C 92 % 997,0 hPa 0,0 l/m 8,3 km/h (2 Bft) SW 225 5,3 C 4,8 C
05.11.2012 01:51 6,5 C 92 % 997,0 hPa 0,0 l/m 5,8 km/h (2 Bft) SW 225 5,3 C 5,5 C
05.11.2012 01:56 6,5 C 92 % 996,7 hPa 0,0 l/m 13,0 km/h (3 Bft) W-SW 247 5,3 C 3,9 C
05.11.2012 02:01 6,5 C 92 % 997,0 hPa 0,0 l/m 7,6 km/h (2 Bft) W-SW 247 5,3 C 5,0 C
05.11.2012 02:06 6,5 C 92 % 997,0 hPa 0,0 l/m 5,0 km/h (1 Bft) SW 225 5,3 C 5,8 C
05.11.2012 02:11 6,5 C 92 % 997,3 hPa 0,0 l/m 5,8 km/h (2 Bft) SW 225 5,3 C 5,5 C
05.11.2012 02:16 6,5 C 92 % 996,9 hPa 0,0 l/m 7,2 km/h (2 Bft) SW 225 5,3 C 5,1 C
05.11.2012 02:21 6,5 C 92 % 996,9 hPa 0,0 l/m 6,1 km/h (2 Bft) SW 225 5,3 C 5,4 C
05.11.2012 02:26 6,5 C 92 % 996,9 hPa 0,0 l/m 5,8 km/h (2 Bft) W-SW 247 5,3 C 5,5 C
05.11.2012 02:31 6,4 C 92 % 997,0 hPa 0,0 l/m 7,6 km/h (2 Bft) SW 225 5,2 C 4,9 C
05.11.2012 02:36 6,4 C 91 % 997,1 hPa 0,0 l/m 7,9 km/h (2 Bft) SW 225 5,0 C 4,8 C
05.11.2012 02:41 6,4 C 91 % 997,0 hPa 0,0 l/m 11,2 km/h (2 Bft) W-SW 247 5,0 C 4,1 C
05.11.2012 02:46 6,4 C 91 % 997,2 hPa 0,0 l/m 8,3 km/h (2 Bft) W 270 5,0 C 4,7 C
05.11.2012 02:51 6,4 C 91 % 996,9 hPa 0,0 l/m 3,2 km/h (1 Bft) S-SW 202 5,0 C 6,4 C
05.11.2012 02:56 6,4 C 91 % 996,9 hPa 0,0 l/m 5,0 km/h (1 Bft) W 270 5,0 C 5,7 C
05.11.2012 03:01 6,4 C 91 % 997,1 hPa 0,0 l/m 8,3 km/h (2 Bft) SW 225 5,0 C 4,7 C
05.11.2012 03:06 6,4 C 91 % 997,1 hPa 0,0 l/m 7,9 km/h (2 Bft) S-SW 202 5,0 C 4,8 C
05.11.2012 03:11 6,4 C 91 % 997,2 hPa 0,0 l/m 8,6 km/h (2 Bft) SW 225 5,0 C 4,6 C
05.11.2012 03:16 6,4 C 91 % 997,2 hPa 0,0 l/m 3,6 km/h (1 Bft) W-SW 247 5,0 C 6,4 C
05.11.2012 03:21 6,4 C 91 % 997,1 hPa 0,0 l/m 7,2 km/h (2 Bft) W 270 5,0 C 5,0 C
05.11.2012 03:26 6,4 C 91 % 996,9 hPa 0,0 l/m 3,6 km/h (1 Bft) S-SW 202 5,0 C 6,4 C
05.11.2012 03:31 6,4 C 91 % 997,1 hPa 0,0 l/m 8,6 km/h (2 Bft) SW 225 5,0 C 4,6 C
05.11.2012 03:36 6,4 C 90 % 997,0 hPa 0,0 l/m 10,1 km/h (2 Bft) SW 225 4,9 C 4,3 C
05.11.2012 03:41 6,5 C 90 % 997,2 hPa 0,0 l/m 10,1 km/h (2 Bft) W-SW 247 5,0 C 4,4 C
05.11.2012 03:46 6,5 C 90 % 997,2 hPa 0,0 l/m 9,7 km/h (2 Bft) W 270 5,0 C 4,5 C
05.11.2012 03:51 6,6 C 90 % 997,3 hPa 0,0 l/m 6,1 km/h (2 Bft) S-SW 202 5,1 C 5,5 C
05.11.2012 03:56 6,6 C 90 % 997,2 hPa 0,0 l/m 8,6 km/h (2 Bft) W-SW 247 5,1 C 4,9 C
05.11.2012 04:01 6,6 C 90 % 997,2 hPa 0,0 l/m 10,1 km/h (2 Bft) S-SW 202 5,1 C 4,5 C
05.11.2012 04:06 6,6 C 90 % 997,2 hPa 0,0 l/m 5,0 km/h (1 Bft) S-SW 202 5,1 C 5,9 C
05.11.2012 04:11 6,7 C 90 % 997,0 hPa 0,0 l/m 7,2 km/h (2 Bft) W-SW 247 5,2 C 5,3 C
05.11.2012 04:16 6,8 C 90 % 997,3 hPa 0,0 l/m 8,3 km/h (2 Bft) SW 225 5,3 C 5,2 C
05.11.2012 04:21 6,9 C 89 % 997,2 hPa 0,0 l/m 14,4 km/h (3 Bft) S-SW 202 5,2 C 4,2 C
05.11.2012 04:26 6,9 C 89 % 997,0 hPa 0,0 l/m 5,8 km/h (2 Bft) SW 225 5,2 C 6,0 C
05.11.2012 04:31 6,9 C 89 % 997,1 hPa 0,0 l/m 7,2 km/h (2 Bft) S 180 5,2 C 5,6 C
05.11.2012 04:36 6,9 C 89 % 996,9 hPa 0,0 l/m 6,1 km/h (2 Bft) SW 225 5,2 C 5,9 C
05.11.2012 04:41 6,9 C 89 % 997,0 hPa 0,0 l/m 4,7 km/h (1 Bft) S-SW 202 5,2 C 6,3 C
05.11.2012 04:46 6,9 C 88 % 997,0 hPa 0,0 l/m 8,3 km/h (2 Bft) W-SW 247 5,1 C 5,3 C
05.11.2012 04:51 6,9 C 88 % 997,0 hPa 0,0 l/m 8,3 km/h (2 Bft) W-SW 247 5,1 C 5,3 C
05.11.2012 04:56 6,9 C 88 % 997,3 hPa 0,0 l/m 4,7 km/h (1 Bft) SW 225 5,1 C 6,3 C
05.11.2012 05:01 6,9 C 88 % 997,1 hPa 0,0 l/m 7,6 km/h (2 Bft) W-SW 247 5,1 C 5,5 C
05.11.2012 05:06 6,9 C 88 % 997,2 hPa 0,0 l/m 9,4 km/h (2 Bft) W-SW 247 5,1 C 5,1 C
05.11.2012 05:11 7,0 C 88 % 997,2 hPa 0,0 l/m 6,5 km/h (2 Bft) S-SW 202 5,2 C 5,9 C
05.11.2012 05:16 7,0 C 88 % 997,1 hPa 0,0 l/m 9,4 km/h (2 Bft) SW 225 5,2 C 5,2 C
05.11.2012 05:21 7,0 C 88 % 997,0 hPa 0,0 l/m 5,8 km/h (2 Bft) SW 225 5,2 C 6,1 C
05.11.2012 05:26 7,0 C 88 % 997,1 hPa 0,0 l/m 4,3 km/h (1 Bft) SW 225 5,2 C 7,0 C
05.11.2012 05:31 6,9 C 87 % 997,2 hPa 0,0 l/m 4,7 km/h (1 Bft) S-SW 202 4,9 C 6,3 C
05.11.2012 05:36 7,0 C 87 % 997,1 hPa 0,0 l/m 11,2 km/h (2 Bft) S-SW 202 5,0 C 4,8 C
05.11.2012 05:41 7,0 C 87 % 997,0 hPa 0,0 l/m 10,1 km/h (2 Bft) S-SW 202 5,0 C 5,0 C
05.11.2012 05:46 7,0 C 87 % 997,0 hPa 0,0 l/m 17,6 km/h (3 Bft) S-SW 202 5,0 C 3,9 C
05.11.2012 05:51 7,0 C 87 % 997,1 hPa 0,0 l/m 9,0 km/h (2 Bft) S-SW 202 5,0 C 5,3 C
05.11.2012 05:56 7,0 C 87 % 997,1 hPa 0,0 l/m 8,6 km/h (2 Bft) SW 225 5,0 C 5,3 C
05.11.2012 06:01 7,1 C 87 % 996,9 hPa 0,0 l/m 11,5 km/h (2 Bft) SW 225 5,1 C 4,9 C
05.11.2012 06:06 7,1 C 87 % 997,0 hPa 0,0 l/m 8,3 km/h (2 Bft) W-SW 247 5,1 C 5,5 C
05.11.2012 06:11 7,1 C 87 % 997,0 hPa 0,0 l/m 3,2 km/h (1 Bft) S 180 5,1 C 7,1 C
05.11.2012 06:16 7,1 C 87 % 996,9 hPa 0,0 l/m 5,0 km/h (1 Bft) S 180 5,1 C 6,5 C
05.11.2012 06:21 7,0 C 87 % 997,1 hPa 0,0 l/m 3,6 km/h (1 Bft) SW 225 5,0 C 7,0 C
05.11.2012 06:26 7,0 C 87 % 997,2 hPa 0,0 l/m 11,5 km/h (2 Bft) W-SW 247 5,0 C 4,8 C
05.11.2012 06:31 7,0 C 87 % 997,1 hPa 0,0 l/m 8,3 km/h (2 Bft) S 180 5,0 C 5,4 C
05.11.2012 06:36 6,9 C 87 % 997,2 hPa 0,0 l/m 6,1 km/h (2 Bft) SW 225 4,9 C 5,9 C
05.11.2012 06:41 7,0 C 87 % 997,2 hPa 0,0 l/m 7,6 km/h (2 Bft) SW 225 5,0 C 5,6 C
05.11.2012 06:46 6,9 C 86 % 997,2 hPa 0,0 l/m 12,2 km/h (2 Bft) SW 225 4,7 C 4,5 C
05.11.2012 06:51 6,9 C 86 % 997,3 hPa 0,0 l/m 5,8 km/h (2 Bft) S-SW 202 4,7 C 6,0 C
05.11.2012 06:56 7,0 C 86 % 997,4 hPa 0,0 l/m 6,1 km/h (2 Bft) S-SW 202 4,8 C 6,0 C
05.11.2012 07:01 7,0 C 86 % 997,3 hPa 0,0 l/m 3,2 km/h (1 Bft) W-SW 247 4,8 C 7,0 C
05.11.2012 07:06 7,1 C 86 % 997,2 hPa 0,0 l/m 3,6 km/h (1 Bft) S 180 4,9 C 7,1 C
05.11.2012 07:11 7,0 C 86 % 997,3 hPa 0,0 l/m 4,3 km/h (1 Bft) S 180 4,8 C 7,0 C
05.11.2012 07:16 7,0 C 86 % 997,4 hPa 0,0 l/m 3,2 km/h (1 Bft) SW 225 4,8 C 7,0 C
05.11.2012 07:21 7,0 C 86 % 997,2 hPa 0,0 l/m 6,5 km/h (2 Bft) S-SW 202 4,8 C 5,9 C
05.11.2012 07:26 7,0 C 86 % 997,3 hPa 0,0 l/m 2,5 km/h (1 Bft) S 180 4,8 C 7,0 C
05.11.2012 07:31 7,0 C 86 % 997,4 hPa 0,0 l/m 2,5 km/h (1 Bft) S-SW 202 4,8 C 7,0 C
05.11.2012 07:36 6,9 C 86 % 997,4 hPa 0,0 l/m 4,3 km/h (1 Bft) S-SW 202 4,7 C 6,9 C
05.11.2012 07:41 6,9 C 86 % 997,5 hPa 0,0 l/m 2,2 km/h (1 Bft) S-SW 202 4,7 C 6,9 C
05.11.2012 07:46 6,9 C 86 % 997,5 hPa 0,0 l/m 2,2 km/h (1 Bft) S-SW 202 4,7 C 6,9 C
05.11.2012 07:51 6,9 C 86 % 997,3 hPa 0,0 l/m 8,3 km/h (2 Bft) W-SW 247 4,7 C 5,3 C
05.11.2012 07:56 6,9 C 86 % 997,4 hPa 0,0 l/m 6,5 km/h (2 Bft) SW 225 4,7 C 5,8 C
05.11.2012 08:01 6,9 C 86 % 997,5 hPa 0,0 l/m 5,8 km/h (2 Bft) SW 225 4,7 C 6,0 C
05.11.2012 08:06 7,0 C 86 % 997,3 hPa 0,0 l/m 6,5 km/h (2 Bft) SW 225 4,8 C 5,9 C
05.11.2012 08:11 7,1 C 86 % 997,4 hPa 0,0 l/m 4,7 km/h (1 Bft) S-SW 202 4,9 C 6,6 C
05.11.2012 08:16 7,1 C 86 % 997,5 hPa 0,0 l/m 4,0 km/h (1 Bft) S-SW 202 4,9 C 7,1 C
05.11.2012 08:21 7,2 C 86 % 997,6 hPa 0,0 l/m 6,1 km/h (2 Bft) W-SW 247 5,0 C 6,2 C
05.11.2012 08:26 7,2 C 86 % 997,5 hPa 0,0 l/m 7,6 km/h (2 Bft) S-SW 202 5,0 C 5,8 C
05.11.2012 08:31 7,2 C 86 % 997,5 hPa 0,0 l/m 10,1 km/h (2 Bft) SW 225 5,0 C 5,3 C
05.11.2012 08:36 7,3 C 85 % 997,6 hPa 0,0 l/m 5,8 km/h (2 Bft) S-SW 202 4,9 C 6,4 C
05.11.2012 08:41 7,3 C 85 % 997,5 hPa 0,0 l/m 11,2 km/h (2 Bft) W-SW 247 4,9 C 5,2 C
05.11.2012 08:46 7,3 C 85 % 997,5 hPa 0,0 l/m 10,8 km/h (2 Bft) SW 225 4,9 C 5,3 C
05.11.2012 08:51 7,4 C 85 % 997,5 hPa 0,0 l/m 6,5 km/h (2 Bft) W-SW 247 5,0 C 6,3 C
05.11.2012 08:56 7,5 C 85 % 997,5 hPa 0,0 l/m 14,0 km/h (3 Bft) SW 225 5,1 C 5,0 C
05.11.2012 09:01 7,6 C 85 % 997,8 hPa 0,0 l/m 7,2 km/h (2 Bft) S 180 5,2 C 6,4 C
05.11.2012 09:06 7,6 C 85 % 997,7 hPa 0,0 l/m 8,3 km/h (2 Bft) W-SW 247 5,2 C 6,1 C
05.11.2012 09:11 7,6 C 84 % 997,5 hPa 0,0 l/m 9,0 km/h (2 Bft) S-SW 202 5,1 C 6,0 C
05.11.2012 09:16 7,6 C 84 % 997,6 hPa 0,0 l/m 13,7 km/h (3 Bft) S-SW 202 5,1 C 5,1 C
05.11.2012 09:21 7,6 C 84 % 997,6 hPa 0,0 l/m 6,5 km/h (2 Bft) W-SW 247 5,1 C 6,6 C
05.11.2012 09:26 7,8 C 84 % 997,5 hPa 0,0 l/m 10,4 km/h (2 Bft) S-SW 202 5,3 C 5,9 C
05.11.2012 09:31 7,8 C 84 % 997,7 hPa 0,0 l/m 9,4 km/h (2 Bft) W-SW 247 5,3 C 6,1 C
05.11.2012 09:36 7,8 C 84 % 997,6 hPa 0,0 l/m 10,4 km/h (2 Bft) SW 225 5,3 C 5,9 C
05.11.2012 09:41 7,8 C 84 % 997,7 hPa 0,0 l/m 13,0 km/h (3 Bft) S-SW 202 5,3 C 5,5 C
05.11.2012 09:46 7,8 C 84 % 997,6 hPa 0,0 l/m 3,6 km/h (1 Bft) SW 225 5,3 C 7,8 C
05.11.2012 09:51 7,8 C 84 % 997,7 hPa 0,0 l/m 10,1 km/h (2 Bft) W 270 5,3 C 6,0 C
05.11.2012 09:56 7,9 C 84 % 997,5 hPa 0,0 l/m 5,8 km/h (2 Bft) SW 225 5,4 C 7,1 C
05.11.2012 10:01 7,9 C 84 % 997,5 hPa 0,0 l/m 16,6 km/h (3 Bft) SW 225 5,4 C 5,1 C
05.11.2012 10:06 8,0 C 84 % 997,6 hPa 0,0 l/m 10,4 km/h (2 Bft) SW 225 5,5 C 6,2 C
05.11.2012 10:11 8,1 C 83 % 997,6 hPa 0,0 l/m 9,7 km/h (2 Bft) S-SW 202 5,4 C 6,4 C
05.11.2012 10:16 8,1 C 83 % 997,6 hPa 0,0 l/m 7,9 km/h (2 Bft) W-SW 247 5,4 C 6,8 C
05.11.2012 10:21 8,1 C 84 % 997,7 hPa 0,0 l/m 14,8 km/h (3 Bft) W-SW 247 5,6 C 5,6 C
05.11.2012 10:26 8,1 C 84 % 997,7 hPa 0,0 l/m 14,8 km/h (3 Bft) W-SW 247 5,6 C 5,6 C
05.11.2012 10:31 8,2 C 84 % 997,8 hPa 0,0 l/m 9,4 km/h (2 Bft) SW 225 5,7 C 6,6 C
05.11.2012 10:36 8,3 C 84 % 997,7 hPa 0,0 l/m 15,5 km/h (3 Bft) SW 225 5,8 C 5,8 C
05.11.2012 10:41 8,5 C 84 % 997,8 hPa 0,0 l/m 1,4 km/h (1 Bft) W-NW 292 6,0 C 8,5 C
05.11.2012 10:46 8,6 C 84 % 997,9 hPa 0,0 l/m 15,8 km/h (3 Bft) W-SW 247 6,1 C 6,1 C
05.11.2012 10:51 8,6 C 84 % 997,9 hPa 0,0 l/m 11,5 km/h (2 Bft) W-SW 247 6,1 C 6,7 C
05.11.2012 10:56 8,6 C 84 % 997,6 hPa 0,0 l/m 8,6 km/h (2 Bft) SW 225 6,1 C 7,2 C
05.11.2012 11:01 8,6 C 83 % 997,5 hPa 0,0 l/m 19,1 km/h (3 Bft) SW 225 5,9 C 5,7 C
05.11.2012 11:06 8,6 C 83 % 997,7 hPa 0,0 l/m 12,2 km/h (2 Bft) S 180 5,9 C 6,6 C
05.11.2012 11:11 8,8 C 83 % 997,6 hPa 0,0 l/m 16,6 km/h (3 Bft) W-SW 247 6,1 C 6,2 C
05.11.2012 11:16 8,8 C 83 % 997,6 hPa 0,0 l/m 13,7 km/h (3 Bft) W-SW 247 6,1 C 6,6 C
05.11.2012 11:21 8,9 C 82 % 997,8 hPa 0,0 l/m 13,3 km/h (3 Bft) SW 225 6,0 C 6,8 C
05.11.2012 11:26 8,8 C 82 % 997,8 hPa 0,0 l/m 10,1 km/h (2 Bft) SW 225 5,9 C 7,2 C
05.11.2012 11:31 8,8 C 82 % 997,7 hPa 0,0 l/m 17,6 km/h (3 Bft) S-SW 202 5,9 C 6,1 C
05.11.2012 11:36 8,8 C 82 % 997,6 hPa 0,0 l/m 14,4 km/h (3 Bft) SW 225 5,9 C 6,5 C
05.11.2012 11:41 8,8 C 82 % 997,6 hPa 0,0 l/m 9,0 km/h (2 Bft) W-SW 247 5,9 C 7,4 C
05.11.2012 11:46 8,9 C 82 % 997,6 hPa 0,0 l/m 13,7 km/h (3 Bft) W-SW 247 6,0 C 6,7 C
05.11.2012 11:51 9,2 C 82 % 997,6 hPa 0,0 l/m 15,1 km/h (3 Bft) SW 225 6,3 C 6,9 C
05.11.2012 11:56 9,3 C 81 % 997,6 hPa 0,0 l/m 12,6 km/h (3 Bft) S-SW 202 6,2 C 7,4 C
05.11.2012 12:01 9,4 C 81 % 997,4 hPa 0,0 l/m 10,1 km/h (2 Bft) W 270 6,3 C 7,9 C
05.11.2012 12:06 9,5 C 81 % 997,3 hPa 0,0 l/m 15,5 km/h (3 Bft) S-SW 202 6,4 C 7,2 C
05.11.2012 12:11 9,7 C 80 % 997,5 hPa 0,0 l/m 22,7 km/h (4 Bft) S-SW 202 6,4 C 6,7 C
05.11.2012 12:16 9,9 C 79 % 997,5 hPa 0,0 l/m 11,9 km/h (2 Bft) W-SW 247 6,4 C 8,2 C
05.11.2012 12:21 9,8 C 79 % 997,3 hPa 0,0 l/m 10,1 km/h (2 Bft) S-SO 157 6,3 C 8,4 C
05.11.2012 12:26 9,6 C 78 % 997,4 hPa 0,0 l/m 14,4 km/h (3 Bft) SW 225 6,0 C 7,5 C
05.11.2012 12:31 9,6 C 79 % 997,5 hPa 0,0 l/m 11,5 km/h (2 Bft) W-SW 247 6,1 C 7,9 C
05.11.2012 12:36 9,6 C 79 % 997,5 hPa 0,0 l/m 14,0 km/h (3 Bft) SW 225 6,1 C 7,5 C
05.11.2012 12:41 9,6 C 79 % 997,2 hPa 0,0 l/m 10,1 km/h (2 Bft) W 270 6,1 C 8,1 C
05.11.2012 12:46 9,5 C 80 % 997,4 hPa 0,0 l/m 9,0 km/h (2 Bft) W 270 6,2 C 8,2 C
05.11.2012 12:51 9,4 C 79 % 997,4 hPa 0,0 l/m 26,3 km/h (4 Bft) W-SW 247 5,9 C 6,1 C
05.11.2012 12:56 9,3 C 80 % 997,4 hPa 0,0 l/m 11,9 km/h (2 Bft) W-SW 247 6,0 C 7,5 C
05.11.2012 13:01 9,2 C 81 % 997,6 hPa 0,0 l/m 15,5 km/h (3 Bft) W 270 6,1 C 6,9 C
05.11.2012 13:06 8,9 C 81 % 997,6 hPa 0,0 l/m 10,1 km/h (2 Bft) W 270 5,8 C 7,3 C
05.11.2012 13:11 8,9 C 81 % 997,5 hPa 0,0 l/m 17,3 km/h (3 Bft) W-SW 247 5,8 C 6,3 C
05.11.2012 13:16 8,8 C 82 % 997,5 hPa 0,0 l/m 14,0 km/h (3 Bft) W 270 5,9 C 6,6 C
05.11.2012 13:21 8,6 C 82 % 997,6 hPa 0,5 l/m 15,5 km/h (3 Bft) S-SO 157 5,7 C 6,1 C
05.11.2012 13:26 8,5 C 83 % 997,6 hPa 0,0 l/m 17,3 km/h (3 Bft) W 270 5,8 C 5,8 C
05.11.2012 13:31 8,4 C 83 % 997,7 hPa 0,0 l/m 17,3 km/h (3 Bft) W 270 5,7 C 5,7 C
05.11.2012 13:36 8,4 C 83 % 997,5 hPa 0,0 l/m 15,5 km/h (3 Bft) W-SW 247 5,7 C 5,9 C
05.11.2012 13:41 8,4 C 83 % 997,5 hPa 0,0 l/m 24,1 km/h (4 Bft) W 270 5,7 C 5,0 C
05.11.2012 13:46 8,4 C 83 % 997,6 hPa 0,0 l/m 16,9 km/h (3 Bft) W-SW 247 5,7 C 5,7 C
05.11.2012 13:51 8,5 C 83 % 997,5 hPa 0,0 l/m 18,0 km/h (3 Bft) W 270 5,8 C 5,7 C
05.11.2012 13:56 8,5 C 82 % 997,5 hPa 0,0 l/m 24,5 km/h (4 Bft) W 270 5,6 C 5,1 C
05.11.2012 14:01 8,5 C 81 % 997,6 hPa 0,0 l/m 18,0 km/h (3 Bft) W 270 5,4 C 5,7 C
05.11.2012 14:06 8,5 C 81 % 997,6 hPa 0,0 l/m 15,5 km/h (3 Bft) W-SW 247 5,4 C 6,0 C
05.11.2012 14:11 8,5 C 81 % 997,8 hPa 0,0 l/m 21,6 km/h (4 Bft) W 270 5,4 C 5,3 C
05.11.2012 14:16 8,5 C 81 % 997,9 hPa 0,0 l/m 13,3 km/h (3 Bft) W-SW 247 5,4 C 6,3 C
05.11.2012 14:21 8,4 C 82 % 997,9 hPa 0,0 l/m 14,4 km/h (3 Bft) W-SW 247 5,5 C 6,0 C
05.11.2012 14:26 8,3 C 82 % 997,9 hPa 0,0 l/m 25,6 km/h (4 Bft) W-SW 247 5,4 C 4,7 C
05.11.2012 14:31 8,1 C 82 % 997,9 hPa 0,0 l/m 23,0 km/h (4 Bft) W 270 5,2 C 4,7 C
05.11.2012 14:36 8,1 C 83 % 997,8 hPa 0,0 l/m 21,6 km/h (4 Bft) SW 225 5,4 C 4,8 C
05.11.2012 14:41 8,1 C 83 % 997,9 hPa 0,0 l/m 12,6 km/h (3 Bft) W-SW 247 5,4 C 5,9 C
05.11.2012 14:46 8,1 C 83 % 997,8 hPa 0,0 l/m 20,9 km/h (4 Bft) W 270 5,4 C 4,9 C
05.11.2012 14:51 8,1 C 83 % 997,8 hPa 0,0 l/m 22,0 km/h (4 Bft) W-SW 247 5,4 C 4,8 C
05.11.2012 14:56 8,1 C 82 % 997,9 hPa 0,0 l/m 26,3 km/h (4 Bft) W 270 5,2 C 4,4 C
05.11.2012 15:01 8,1 C 82 % 998,0 hPa 0,0 l/m 21,2 km/h (4 Bft) W 270 5,2 C 4,9 C
05.11.2012 15:06 8,1 C 82 % 997,9 hPa 0,0 l/m 19,4 km/h (3 Bft) W-SW 247 5,2 C 5,0 C
05.11.2012 15:11 8,1 C 82 % 998,0 hPa 0,0 l/m 13,7 km/h (3 Bft) W 270 5,2 C 5,8 C
05.11.2012 15:16 8,1 C 82 % 998,0 hPa 0,0 l/m 4,0 km/h (1 Bft) W-SW 247 5,2 C 8,1 C
05.11.2012 15:21 8,1 C 82 % 998,0 hPa 0,0 l/m 18,4 km/h (3 Bft) W 270 5,2 C 5,2 C
05.11.2012 15:26 7,9 C 83 % 998,1 hPa 0,0 l/m 6,5 km/h (2 Bft) W 270 5,2 C 6,9 C
05.11.2012 15:31 7,9 C 83 % 998,1 hPa 0,0 l/m 13,7 km/h (3 Bft) W 270 5,2 C 5,5 C
05.11.2012 15:36 7,9 C 83 % 998,2 hPa 0,0 l/m 13,0 km/h (3 Bft) S-SW 202 5,2 C 5,6 C
05.11.2012 15:41 7,9 C 83 % 998,1 hPa 0,0 l/m 18,0 km/h (3 Bft) W 270 5,2 C 4,9 C
05.11.2012 15:46 7,8 C 84 % 998,2 hPa 0,0 l/m 5,8 km/h (2 Bft) W 270 5,3 C 7,0 C
05.11.2012 15:51 7,8 C 84 % 998,2 hPa 0,0 l/m 16,9 km/h (3 Bft) W-SW 247 5,3 C 5,0 C
05.11.2012 15:56 7,7 C 84 % 998,2 hPa 0,0 l/m 8,6 km/h (2 Bft) W 270 5,2 C 6,2 C
05.11.2012 16:01 7,6 C 84 % 998,3 hPa 0,0 l/m 4,0 km/h (1 Bft) W-NW 292 5,1 C 7,6 C
05.11.2012 16:06 7,6 C 85 % 998,3 hPa 0,0 l/m 10,8 km/h (2 Bft) W-SW 247 5,2 C 5,6 C
05.11.2012 16:11 7,6 C 85 % 998,3 hPa 0,0 l/m 16,6 km/h (3 Bft) W-SW 247 5,2 C 4,7 C
05.11.2012 16:16 7,6 C 85 % 998,6 hPa 0,0 l/m 10,1 km/h (2 Bft) W 270 5,2 C 5,7 C
05.11.2012 16:21 7,6 C 85 % 998,6 hPa 0,0 l/m 19,1 km/h (3 Bft) W 270 5,2 C 4,4 C
05.11.2012 16:26 7,6 C 85 % 998,7 hPa 0,0 l/m 13,0 km/h (3 Bft) SW 225 5,2 C 5,2 C
05.11.2012 16:31 7,6 C 85 % 998,6 hPa 0,0 l/m 4,7 km/h (1 Bft) W 270 5,2 C 7,1 C
05.11.2012 16:36 7,6 C 85 % 998,7 hPa 0,0 l/m 10,1 km/h (2 Bft) NW 315 5,2 C 5,7 C
05.11.2012 16:41 7,6 C 85 % 998,8 hPa 0,0 l/m 29,5 km/h (5 Bft) W 270 5,2 C 3,5 C
05.11.2012 16:46 7,6 C 85 % 998,7 hPa 0,0 l/m 10,1 km/h (2 Bft) W-SW 247 5,2 C 5,7 C
05.11.2012 16:51 7,6 C 85 % 998,7 hPa 0,0 l/m 11,2 km/h (2 Bft) W-SW 247 5,2 C 5,5 C
05.11.2012 16:56 7,6 C 85 % 998,8 hPa 0,0 l/m 15,5 km/h (3 Bft) W-SW 247 5,2 C 4,9 C
05.11.2012 17:01 7,5 C 85 % 998,9 hPa 0,0 l/m 8,3 km/h (2 Bft) N-NW 337 5,1 C 6,0 C
05.11.2012 17:06 7,5 C 85 % 999,0 hPa 0,0 l/m 7,9 km/h (2 Bft) W-SW 247 5,1 C 6,1 C
05.11.2012 17:11 7,5 C 84 % 999,0 hPa 0,0 l/m 13,3 km/h (3 Bft) NW 315 5,0 C 5,1 C
05.11.2012 17:16 7,5 C 84 % 999,2 hPa 0,0 l/m 10,1 km/h (2 Bft) W-NW 292 5,0 C 5,6 C
05.11.2012 17:21 7,5 C 84 % 999,3 hPa 0,0 l/m 11,5 km/h (2 Bft) W-NW 292 5,0 C 5,4 C
05.11.2012 17:26 7,4 C 82 % 999,3 hPa 0,0 l/m 20,9 km/h (4 Bft) W-NW 292 4,5 C 4,0 C
05.11.2012 17:31 7,4 C 82 % 999,3 hPa 0,0 l/m 14,4 km/h (3 Bft) W 270 4,5 C 4,8 C
05.11.2012 17:36 7,4 C 81 % 999,4 hPa 0,0 l/m 8,3 km/h (2 Bft) NW 315 4,4 C 5,9 C
05.11.2012 17:41 7,3 C 81 % 999,5 hPa 0,0 l/m 17,3 km/h (3 Bft) W 270 4,3 C 4,3 C
05.11.2012 17:46 7,3 C 81 % 999,6 hPa 0,0 l/m 9,4 km/h (2 Bft) W-NW 292 4,3 C 5,5 C
05.11.2012 17:51 7,2 C 81 % 999,8 hPa 0,0 l/m 8,3 km/h (2 Bft) W-NW 292 4,2 C 5,6 C
05.11.2012 17:56 7,2 C 80 % 999,8 hPa 0,0 l/m 9,7 km/h (2 Bft) W 270 4,0 C 5,3 C
05.11.2012 18:01 7,2 C 80 % 999,8 hPa 0,0 l/m 7,9 km/h (2 Bft) NW 315 4,0 C 5,7 C
05.11.2012 18:06 7,2 C 80 % 1000,0 hPa 0,0 l/m 8,3 km/h (2 Bft) W 270 4,0 C 5,6 C
05.11.2012 18:11 7,1 C 80 % 1000,1 hPa 0,0 l/m 7,2 km/h (2 Bft) W 270 3,9 C 5,8 C
05.11.2012 18:16 7,1 C 80 % 1000,2 hPa 0,0 l/m 3,2 km/h (1 Bft) W 270 3,9 C 7,1 C
05.11.2012 18:21 7,0 C 80 % 1000,4 hPa 0,0 l/m 10,8 km/h (2 Bft) N-NW 337 3,8 C 4,9 C
05.11.2012 18:26 6,9 C 80 % 1000,3 hPa 0,0 l/m 10,8 km/h (2 Bft) W-NW 292 3,7 C 4,8 C
05.11.2012 18:31 6,9 C 80 % 1000,4 hPa 0,0 l/m 6,8 km/h (2 Bft) W-NW 292 3,7 C 5,7 C
05.11.2012 18:36 6,9 C 80 % 1000,4 hPa 0,0 l/m 17,6 km/h (3 Bft) NW 315 3,7 C 3,7 C
05.11.2012 18:41 6,9 C 80 % 1000,5 hPa 0,0 l/m 4,3 km/h (1 Bft) W-NW 292 3,7 C 6,9 C
05.11.2012 18:46 6,9 C 80 % 1000,7 hPa 0,0 l/m 19,4 km/h (3 Bft) NW 315 3,7 C 3,5 C
05.11.2012 18:51 6,9 C 80 % 1000,6 hPa 0,0 l/m 14,8 km/h (3 Bft) N-NW 337 3,7 C 4,1 C
05.11.2012 18:56 6,8 C 80 % 1000,7 hPa 0,0 l/m 9,0 km/h (2 Bft) W-NW 292 3,6 C 5,0 C
05.11.2012 19:01 6,8 C 80 % 1000,7 hPa 0,0 l/m 8,6 km/h (2 Bft) W-SW 247 3,6 C 5,1 C
05.11.2012 19:06 6,8 C 80 % 1001,1 hPa 0,0 l/m 14,4 km/h (3 Bft) W-NW 292 3,6 C 4,1 C
05.11.2012 19:11 6,8 C 81 % 1001,1 hPa 0,0 l/m 11,9 km/h (2 Bft) W-NW 292 3,8 C 4,5 C
05.11.2012 19:16 6,7 C 81 % 1001,1 hPa 0,0 l/m 13,7 km/h (3 Bft) W-NW 292 3,7 C 4,0 C
05.11.2012 19:21 6,6 C 81 % 1001,1 hPa 0,0 l/m 9,4 km/h (2 Bft) W 270 3,6 C 4,7 C
05.11.2012 19:26 6,6 C 82 % 1001,2 hPa 0,0 l/m 8,3 km/h (2 Bft) NW 315 3,8 C 4,9 C
05.11.2012 19:31 6,5 C 82 % 1001,3 hPa 0,0 l/m 11,9 km/h (2 Bft) W-NW 292 3,7 C 4,1 C
05.11.2012 19:36 6,5 C 82 % 1001,3 hPa 0,0 l/m 10,8 km/h (2 Bft) N-NW 337 3,7 C 4,3 C
05.11.2012 19:41 6,5 C 82 % 1001,3 hPa 0,0 l/m 18,0 km/h (3 Bft) W-SW 247 3,7 C 3,2 C
05.11.2012 19:46 6,5 C 82 % 1001,4 hPa 0,0 l/m 15,5 km/h (3 Bft) W-SW 247 3,7 C 3,5 C
05.11.2012 19:51 6,5 C 82 % 1001,6 hPa 0,0 l/m 10,1 km/h (2 Bft) W-NW 292 3,7 C 4,4 C
05.11.2012 19:56 6,5 C 82 % 1001,7 hPa 0,0 l/m 11,9 km/h (2 Bft) W-NW 292 3,7 C 4,1 C
05.11.2012 20:01 6,5 C 83 % 1001,7 hPa 0,0 l/m 7,6 km/h (2 Bft) NW 315 3,8 C 5,0 C
05.11.2012 20:06 6,5 C 83 % 1001,8 hPa 0,0 l/m 3,6 km/h (1 Bft) W-NW 292 3,8 C 6,5 C
05.11.2012 20:11 6,4 C 83 % 1001,9 hPa 0,0 l/m 12,6 km/h (3 Bft) W-NW 292 3,7 C 3,8 C
05.11.2012 20:16 6,4 C 83 % 1001,9 hPa 0,0 l/m 8,6 km/h (2 Bft) W 270 3,7 C 4,6 C
05.11.2012 20:21 6,4 C 84 % 1002,1 hPa 0,0 l/m 16,2 km/h (3 Bft) NW 315 3,9 C 3,3 C
05.11.2012 20:26 6,3 C 84 % 1002,2 hPa 0,0 l/m 15,5 km/h (3 Bft) W-NW 292 3,8 C 3,3 C
05.11.2012 20:31 6,2 C 84 % 1002,3 hPa 0,0 l/m 11,9 km/h (2 Bft) W-NW 292 3,7 C 3,7 C
05.11.2012 20:36 6,2 C 84 % 1002,4 hPa 0,0 l/m 9,4 km/h (2 Bft) W-NW 292 3,7 C 4,2 C
05.11.2012 20:41 6,2 C 84 % 1002,5 hPa 0,0 l/m 10,8 km/h (2 Bft) W 270 3,7 C 3,9 C
05.11.2012 20:46 6,2 C 84 % 1002,6 hPa 0,0 l/m 4,3 km/h (1 Bft) W-NW 292 3,7 C 6,2 C
05.11.2012 20:51 6,2 C 84 % 1002,5 hPa 0,0 l/m 8,3 km/h (2 Bft) W-NW 292 3,7 C 4,5 C
05.11.2012 20:56 6,2 C 85 % 1002,7 hPa 0,0 l/m 7,6 km/h (2 Bft) W-SW 247 3,9 C 4,6 C
05.11.2012 21:01 6,2 C 85 % 1002,7 hPa 0,0 l/m 13,0 km/h (3 Bft) W-NW 292 3,9 C 3,5 C
05.11.2012 21:06 6,2 C 85 % 1002,9 hPa 0,0 l/m 8,3 km/h (2 Bft) W-NW 292 3,9 C 4,5 C
05.11.2012 21:11 6,2 C 85 % 1002,9 hPa 0,0 l/m 7,6 km/h (2 Bft) W-SW 247 3,9 C 4,6 C
05.11.2012 21:16 6,3 C 84 % 1003,0 hPa 0,0 l/m 12,6 km/h (3 Bft) W 270 3,8 C 3,7 C
05.11.2012 21:21 6,3 C 84 % 1003,0 hPa 0,0 l/m 13,0 km/h (3 Bft) W-NW 292 3,8 C 3,7 C
05.11.2012 21:26 6,3 C 84 % 1003,2 hPa 0,0 l/m 15,5 km/h (3 Bft) W-NW 292 3,8 C 3,3 C
05.11.2012 21:31 6,3 C 84 % 1003,3 hPa 0,0 l/m 7,2 km/h (2 Bft) W-NW 292 3,8 C 4,9 C
05.11.2012 21:36 6,4 C 84 % 1003,4 hPa 0,0 l/m 9,0 km/h (2 Bft) W-NW 292 3,9 C 4,5 C
05.11.2012 21:41 6,4 C 84 % 1003,5 hPa 0,0 l/m 4,3 km/h (1 Bft) W 270 3,9 C 6,4 C
05.11.2012 21:46 6,3 C 84 % 1003,5 hPa 0,0 l/m 14,4 km/h (3 Bft) W-NW 292 3,8 C 3,4 C
05.11.2012 21:51 6,3 C 84 % 1003,5 hPa 0,0 l/m 7,2 km/h (2 Bft) W-NW 292 3,8 C 4,9 C
05.11.2012 21:56 6,4 C 84 % 1003,7 hPa 0,0 l/m 8,6 km/h (2 Bft) W 270 3,9 C 4,6 C
05.11.2012 22:01 6,3 C 84 % 1003,8 hPa 0,0 l/m 8,3 km/h (2 Bft) W-NW 292 3,8 C 4,6 C
05.11.2012 22:06 6,3 C 84 % 1004,0 hPa 0,0 l/m 13,3 km/h (3 Bft) W-SW 247 3,8 C 3,6 C
05.11.2012 22:11 6,2 C 84 % 1004,0 hPa 0,0 l/m 6,5 km/h (2 Bft) N-NW 337 3,7 C 4,9 C
05.11.2012 22:16 6,1 C 85 % 1004,0 hPa 0,0 l/m 5,0 km/h (1 Bft) W 270 3,8 C 5,3 C
05.11.2012 22:21 6,1 C 86 % 1004,1 hPa 0,0 l/m 6,5 km/h (2 Bft) W-NW 292 3,9 C 4,8 C
05.11.2012 22:26 6,0 C 86 % 1004,4 hPa 0,0 l/m 11,9 km/h (2 Bft) W-NW 292 3,8 C 3,5 C
05.11.2012 22:31 5,9 C 86 % 1004,3 hPa 0,0 l/m 7,2 km/h (2 Bft) W-NW 292 3,7 C 4,4 C
05.11.2012 22:36 5,9 C 86 % 1004,4 hPa 0,0 l/m 13,0 km/h (3 Bft) NW 315 3,7 C 3,2 C
05.11.2012 22:41 5,9 C 86 % 1004,5 hPa 0,0 l/m 13,3 km/h (3 Bft) NW 315 3,7 C 3,1 C
05.11.2012 22:46 5,9 C 86 % 1004,4 hPa 0,0 l/m 14,8 km/h (3 Bft) W 270 3,7 C 2,9 C
05.11.2012 22:51 5,9 C 86 % 1004,6 hPa 0,0 l/m 13,7 km/h (3 Bft) W-NW 292 3,7 C 3,1 C
05.11.2012 22:56 5,9 C 86 % 1004,8 hPa 0,0 l/m 8,6 km/h (2 Bft) W 270 3,7 C 4,0 C
05.11.2012 23:01 5,9 C 86 % 1004,6 hPa 0,0 l/m 10,4 km/h (2 Bft) W-NW 292 3,7 C 3,7 C
05.11.2012 23:06 5,9 C 86 % 1004,8 hPa 0,0 l/m 7,9 km/h (2 Bft) W-NW 292 3,7 C 4,2 C
05.11.2012 23:11 5,9 C 86 % 1004,9 hPa 0,0 l/m 17,6 km/h (3 Bft) W 270 3,7 C 2,5 C
05.11.2012 23:16 6,0 C 85 % 1005,0 hPa 0,0 l/m 6,8 km/h (2 Bft) W-NW 292 3,7 C 4,6 C
05.11.2012 23:21 6,0 C 85 % 1005,1 hPa 0,0 l/m 10,4 km/h (2 Bft) W-NW 292 3,7 C 3,8 C
05.11.2012 23:26 6,1 C 85 % 1005,4 hPa 0,0 l/m 8,3 km/h (2 Bft) W-NW 292 3,8 C 4,4 C
05.11.2012 23:31 6,1 C 85 % 1005,2 hPa 0,0 l/m 8,6 km/h (2 Bft) W-NW 292 3,8 C 4,3 C
05.11.2012 23:36 6,1 C 85 % 1005,3 hPa 0,0 l/m 13,7 km/h (3 Bft) NW 315 3,8 C 3,3 C
05.11.2012 23:41 6,1 C 85 % 1005,4 hPa 0,0 l/m 5,4 km/h (1 Bft) NW 315 3,8 C 5,2 C
05.11.2012 23:46 6,1 C 85 % 1005,5 hPa 0,0 l/m 7,6 km/h (2 Bft) NW 315 3,8 C 4,5 C
05.11.2012 23:51 6,1 C 85 % 1005,6 hPa 0,0 l/m 12,6 km/h (3 Bft) W-NW 292 3,8 C 3,5 C
05.11.2012 23:56 6,1 C 85 % 1005,7 hPa 0,0 l/m 10,1 km/h (2 Bft) N-NW 337 3,8 C 4,0 C
_ Min-Zeit 22:31 12:26 01:56 - 10:41 - - 19:21 23:11
Minimum _ 5,9 C 78 % 996,7 hPa - 1,4 km/h (1 Bft) - - 3,6 C 2,5 C
_ Max-Zeit 12:16 00:01 23:56 13:21 16:41 - - 12:16 10:41
Maximum _ 9,9 C 92 % 1005,7 hPa 0,5 l/m 29,5 km/h
W (5 Bft)
- - 6,4 C 8,5 C
Durchschnitt _ 7,3 C 85 % 998,9 hPa #0,5 l/m 10,4 km/h (2 Bft) W-SW - 4,9 C 5,5 C
(c) by David Heller